Wetterdaten: Woche 28.09.15 - 04.10.15 (KW40)
Datum Zeit Temp. A. Feuchte A. Luftdruck Regen Wind Richtung Sonnenschein ET UV Solar Taupunkt Windchill Windben
28.09.2015 00:00 8,5 C 85 % 1033,1 hPa 0,0 l/m 0,0 km/h (0 Bft) N 0,00 h 0,000 mm 0,0 UV-I 0 W/m 6,2 C 8,5 C 0,0 km/h (0 Bft)
28.09.2015 01:00 7,9 C 87 % 1033,2 hPa 0,0 l/m 0,0 km/h (0 Bft) N 0,00 h 0,000 mm 0,0 UV-I 0 W/m 5,9 C 7,9 C 0,0 km/h (0 Bft)
28.09.2015 02:00 7,8 C 89 % 1033,3 hPa 0,0 l/m 0,0 km/h (0 Bft) N 0,00 h 0,000 mm 0,0 UV-I 0 W/m 6,2 C 7,8 C 0,0 km/h (0 Bft)
28.09.2015 03:00 7,9 C 89 % 1033,2 hPa 0,0 l/m 0,0 km/h (0 Bft) N 0,00 h 0,000 mm 0,0 UV-I 0 W/m 6,2 C 7,9 C 0,0 km/h (0 Bft)
28.09.2015 04:00 7,0 C 89 % 1033,2 hPa 0,0 l/m 0,0 km/h (0 Bft) N 0,00 h 0,000 mm 0,0 UV-I 0 W/m 5,3 C 7,0 C 0,0 km/h (0 Bft)
28.09.2015 05:00 6,3 C 91 % 1033,4 hPa 0,0 l/m 0,0 km/h (0 Bft) N 0,00 h 0,000 mm 0,0 UV-I 0 W/m 5,0 C 6,3 C 0,0 km/h (0 Bft)
28.09.2015 06:00 6,3 C 93 % 1033,7 hPa 0,0 l/m 0,0 km/h (0 Bft) N 0,00 h 0,000 mm 0,0 UV-I 0 W/m 5,2 C 6,3 C 0,0 km/h (0 Bft)
28.09.2015 07:00 6,6 C 94 % 1033,9 hPa 0,0 l/m 0,0 km/h (0 Bft) N 0,00 h 0,000 mm 0,0 UV-I 10 W/m 5,7 C 6,6 C 0,0 km/h (0 Bft)
28.09.2015 08:00 7,2 C 94 % 1034,3 hPa 0,0 l/m 0,0 km/h (0 Bft) N 0,27 h 0,000 mm 0,5 UV-I 39 W/m 6,3 C 7,2 C 0,0 km/h (0 Bft)
28.09.2015 09:00 10,1 C 84 % 1034,4 hPa 0,0 l/m 0,2 km/h (0 Bft) N 1,00 h 0,025 mm 1,0 UV-I 205 W/m 7,6 C 10,1 C 1,5 km/h (1 Bft)
28.09.2015 10:00 13,6 C 65 % 1034,5 hPa 0,0 l/m 2,7 km/h (1 Bft) N-NO 1,00 h 0,102 mm 1,8 UV-I 416 W/m 7,0 C 13,5 C 7,6 km/h (2 Bft)
28.09.2015 11:00 14,8 C 57 % 1034,6 hPa 0,0 l/m 3,1 km/h (1 Bft) N 1,00 h 0,229 mm 2,3 UV-I 527 W/m 6,4 C 14,6 C 7,4 km/h (2 Bft)
28.09.2015 12:00 16,2 C 47 % 1034,4 hPa 0,0 l/m 3,5 km/h (1 Bft) N-NO 1,00 h 0,254 mm 3,4 UV-I 720 W/m 4,9 C 15,9 C 8,7 km/h (2 Bft)
28.09.2015 13:00 16,2 C 45 % 1034,2 hPa 0,0 l/m 2,8 km/h (1 Bft) NO 1,00 h 0,406 mm 2,9 UV-I 586 W/m 4,2 C 16,0 C 7,9 km/h (2 Bft)
28.09.2015 14:00 16,6 C 44 % 1033,7 hPa 0,0 l/m 5,8 km/h (2 Bft) N-NO 1,00 h 0,305 mm 2,4 UV-I 511 W/m 4,5 C 15,9 C 11,2 km/h (2 Bft)
28.09.2015 15:00 15,7 C 48 % 1033,3 hPa 0,0 l/m 5,9 km/h (2 Bft) N-NO 1,00 h 0,305 mm 1,5 UV-I 269 W/m 4,6 C 14,9 C 10,7 km/h (2 Bft)
28.09.2015 16:00 15,5 C 47 % 1033,2 hPa 0,0 l/m 6,5 km/h (2 Bft) N-NO 0,85 h 0,178 mm 1,0 UV-I 266 W/m 4,2 C 14,7 C 12,9 km/h (3 Bft)
28.09.2015 17:00 14,2 C 51 % 1033,2 hPa 0,0 l/m 9,7 km/h (2 Bft) N-NO 0,67 h 0,178 mm 0,5 UV-I 76 W/m 4,2 C 12,2 C 16,1 km/h (3 Bft)
28.09.2015 18:00 12,8 C 56 % 1033,7 hPa 0,0 l/m 8,9 km/h (2 Bft) N-NO 0,05 h 0,102 mm 0,0 UV-I 20 W/m 4,3 C 11,1 C 15,1 km/h (3 Bft)
28.09.2015 19:00 10,7 C 66 % 1034,3 hPa 0,0 l/m 6,7 km/h (2 Bft) N-NO 0,00 h 0,051 mm 0,0 UV-I 0 W/m 4,5 C 10,2 C 11,1 km/h (2 Bft)
28.09.2015 20:00 9,8 C 70 % 1034,8 hPa 0,0 l/m 4,0 km/h (1 Bft) N-NO 0,00 h 0,025 mm 0,0 UV-I 0 W/m 4,5 C 9,7 C 7,2 km/h (2 Bft)
28.09.2015 21:00 8,6 C 74 % 1034,9 hPa 0,0 l/m 0,5 km/h (0 Bft) N 0,00 h 0,025 mm 0,0 UV-I 0 W/m 4,3 C 8,6 C 1,5 km/h (1 Bft)
28.09.2015 22:00 7,0 C 81 % 1034,8 hPa 0,0 l/m 0,3 km/h (0 Bft) N 0,00 h 0,025 mm 0,0 UV-I 0 W/m 3,9 C 7,0 C 0,9 km/h (0 Bft)
28.09.2015 23:00 5,8 C 84 % 1034,8 hPa 0,0 l/m 0,6 km/h (0 Bft) N 0,00 h 0,000 mm 0,0 UV-I 0 W/m 3,4 C 5,8 C 1,2 km/h (1 Bft)
29.09.2015 00:00 4,8 C 87 % 1034,8 hPa 0,0 l/m 0,0 km/h (0 Bft) N 0,00 h 0,000 mm 0,0 UV-I 0 W/m 2,8 C 4,8 C 0,0 km/h (0 Bft)
29.09.2015 01:00 4,0 C 88 % 1034,6 hPa 0,0 l/m 0,1 km/h (0 Bft) N 0,00 h 0,000 mm 0,0 UV-I 0 W/m 2,2 C 4,0 C 0,4 km/h (0 Bft)
29.09.2015 02:00 3,4 C 89 % 1034,4 hPa 0,0 l/m 0,0 km/h (0 Bft) N 0,00 h 0,000 mm 0,0 UV-I 0 W/m 1,8 C 3,4 C 0,0 km/h (0 Bft)
29.09.2015 03:00 2,8 C 90 % 1034,2 hPa 0,0 l/m 0,0 km/h (0 Bft) N 0,00 h 0,000 mm 0,0 UV-I 0 W/m 1,4 C 2,8 C 0,0 km/h (0 Bft)
29.09.2015 04:00 2,3 C 91 % 1034,2 hPa 0,0 l/m 0,1 km/h (0 Bft) N 0,00 h 0,000 mm 0,0 UV-I 0 W/m 0,9 C 2,3 C 0,3 km/h (0 Bft)
29.09.2015 05:00 1,9 C 91 % 1034,2 hPa 0,0 l/m 0,1 km/h (0 Bft) N 0,00 h 0,000 mm 0,0 UV-I 0 W/m 0,6 C 1,9 C 0,2 km/h (0 Bft)
29.09.2015 06:00 1,9 C 93 % 1034,2 hPa 0,0 l/m 0,6 km/h (0 Bft) N 0,00 h 0,000 mm 0,0 UV-I 0 W/m 0,8 C 1,9 C 1,4 km/h (1 Bft)
29.09.2015 07:00 2,6 C 94 % 1034,5 hPa 0,0 l/m 0,5 km/h (0 Bft) NW 0,00 h 0,000 mm 0,0 UV-I 19 W/m 1,7 C 2,6 C 1,4 km/h (1 Bft)
29.09.2015 08:00 5,3 C 94 % 1034,7 hPa 0,0 l/m 0,2 km/h (0 Bft) N 0,82 h 0,000 mm 0,5 UV-I 160 W/m 4,4 C 5,3 C 0,9 km/h (0 Bft)
29.09.2015 09:00 11,3 C 78 % 1034,6 hPa 0,0 l/m 2,1 km/h (1 Bft) N 1,00 h 0,076 mm 1,0 UV-I 338 W/m 7,5 C 11,2 C 7,1 km/h (2 Bft)
29.09.2015 10:00 13,1 C 69 % 1034,5 hPa 0,0 l/m 6,5 km/h (2 Bft) O-NO 1,00 h 0,152 mm 1,6 UV-I 337 W/m 7,5 C 12,0 C 14,6 km/h (3 Bft)
29.09.2015 11:00 13,0 C 66 % 1034,5 hPa 0,0 l/m 6,0 km/h (2 Bft) O-NO 1,00 h 0,203 mm 1,7 UV-I 265 W/m 6,6 C 11,9 C 12,8 km/h (3 Bft)
29.09.2015 12:00 13,7 C 58 % 1034,6 hPa 0,0 l/m 7,2 km/h (2 Bft) O-NO 1,00 h 0,152 mm 2,0 UV-I 267 W/m 5,6 C 12,6 C 16,1 km/h (3 Bft)
29.09.2015 13:00 14,5 C 54 % 1034,4 hPa 0,0 l/m 5,8 km/h (2 Bft) O-NO 1,00 h 0,203 mm 2,7 UV-I 434 W/m 5,4 C 13,6 C 12,5 km/h (2 Bft)
29.09.2015 14:00 15,0 C 51 % 1034,1 hPa 0,0 l/m 6,1 km/h (2 Bft) O-NO 1,00 h 0,254 mm 2,2 UV-I 383 W/m 4,9 C 14,1 C 14,1 km/h (3 Bft)
29.09.2015 15:00 14,3 C 53 % 1034,0 hPa 0,0 l/m 7,4 km/h (2 Bft) O-NO 1,00 h 0,229 mm 1,4 UV-I 286 W/m 4,7 C 13,1 C 16,7 km/h (3 Bft)
29.09.2015 16:00 14,4 C 52 % 1033,7 hPa 0,0 l/m 6,8 km/h (2 Bft) O-NO 1,00 h 0,178 mm 1,0 UV-I 262 W/m 4,8 C 13,4 C 15,5 km/h (3 Bft)
29.09.2015 17:00 13,6 C 56 % 1033,5 hPa 0,0 l/m 4,7 km/h (1 Bft) O-NO 0,67 h 0,178 mm 0,6 UV-I 93 W/m 4,9 C 12,9 C 11,0 km/h (2 Bft)
29.09.2015 18:00 12,3 C 63 % 1033,7 hPa 0,0 l/m 4,0 km/h (1 Bft) N-NO 0,02 h 0,076 mm 0,0 UV-I 20 W/m 5,4 C 11,9 C 10,1 km/h (2 Bft)
29.09.2015 19:00 10,8 C 70 % 1033,9 hPa 0,0 l/m 4,3 km/h (1 Bft) N-NO 0,00 h 0,025 mm 0,0 UV-I 0 W/m 5,6 C 10,5 C 8,8 km/h (2 Bft)
29.09.2015 20:00 9,7 C 74 % 1033,8 hPa 0,0 l/m 5,2 km/h (1 Bft) N-NO 0,00 h 0,025 mm 0,0 UV-I 0 W/m 5,3 C 9,5 C 8,7 km/h (2 Bft)
29.09.2015 21:00 8,8 C 78 % 1033,9 hPa 0,0 l/m 4,9 km/h (1 Bft) N-NO 0,00 h 0,025 mm 0,0 UV-I 0 W/m 5,1 C 8,7 C 9,1 km/h (2 Bft)
29.09.2015 22:00 8,6 C 81 % 1033,9 hPa 0,0 l/m 5,6 km/h (2 Bft) O-NO 0,00 h 0,025 mm 0,0 UV-I 0 W/m 5,4 C 8,3 C 11,4 km/h (2 Bft)
29.09.2015 23:00 8,3 C 80 % 1033,8 hPa 0,0 l/m 3,4 km/h (1 Bft) NO 0,00 h 0,025 mm 0,0 UV-I 0 W/m 5,0 C 8,2 C 7,8 km/h (2 Bft)
30.09.2015 00:00 7,6 C 79 % 1034,0 hPa 0,0 l/m 2,2 km/h (1 Bft) N-NO 0,00 h 0,025 mm 0,0 UV-I 0 W/m 4,2 C 7,6 C 4,2 km/h (1 Bft)
30.09.2015 01:00 6,6 C 79 % 1034,0 hPa 0,0 l/m 4,4 km/h (1 Bft) N 0,00 h 0,025 mm 0,0 UV-I 0 W/m 3,3 C 6,5 C 6,7 km/h (2 Bft)
30.09.2015 02:00 6,7 C 76 % 1033,9 hPa 0,0 l/m 4,4 km/h (1 Bft) NO 0,00 h 0,025 mm 0,0 UV-I 0 W/m 2,8 C 6,6 C 8,8 km/h (2 Bft)
30.09.2015 03:00 6,9 C 74 % 1033,5 hPa 0,0 l/m 4,1 km/h (1 Bft) NO 0,00 h 0,025 mm 0,0 UV-I 0 W/m 2,6 C 6,8 C 7,6 km/h (2 Bft)
30.09.2015 04:00 6,8 C 74 % 1033,3 hPa 0,0 l/m 4,4 km/h (1 Bft) NO 0,00 h 0,000 mm 0,0 UV-I 0 W/m 2,6 C 6,7 C 8,3 km/h (2 Bft)
30.09.2015 05:00 6,5 C 75 % 1032,9 hPa 0,0 l/m 3,3 km/h (1 Bft) N-NO 0,00 h 0,025 mm 0,0 UV-I 0 W/m 2,5 C 6,5 C 6,2 km/h (2 Bft)
30.09.2015 06:00 5,9 C 81 % 1032,9 hPa 0,0 l/m 4,4 km/h (1 Bft) O-NO 0,00 h 0,025 mm 0,0 UV-I 0 W/m 2,9 C 5,8 C 8,8 km/h (2 Bft)
30.09.2015 07:00 5,8 C 83 % 1033,2 hPa 0,0 l/m 4,4 km/h (1 Bft) NO 0,00 h 0,000 mm 0,0 UV-I 12 W/m 3,2 C 5,4 C 7,8 km/h (2 Bft)
30.09.2015 08:00 6,5 C 83 % 1033,5 hPa 0,0 l/m 2,3 km/h (1 Bft) O-NO 0,67 h 0,000 mm 0,6 UV-I 137 W/m 3,8 C 6,5 C 7,0 km/h (2 Bft)
30.09.2015 09:00 9,7 C 72 % 1033,6 hPa 0,0 l/m 5,3 km/h (1 Bft) O-NO 1,00 h 0,051 mm 1,1 UV-I 330 W/m 4,9 C 8,9 C 12,3 km/h (2 Bft)
30.09.2015 10:00 11,0 C 65 % 1033,8 hPa 0,0 l/m 7,6 km/h (2 Bft) O-NO 1,00 h 0,152 mm 1,6 UV-I 350 W/m 4,6 C 9,5 C 16,0 km/h (3 Bft)
30.09.2015 11:00 10,7 C 60 % 1034,0 hPa 0,0 l/m 8,3 km/h (2 Bft) O-NO 1,00 h 0,203 mm 2,0 UV-I 296 W/m 3,2 C 9,1 C 19,1 km/h (3 Bft)
30.09.2015 12:00 11,4 C 56 % 1033,8 hPa 0,0 l/m 8,7 km/h (2 Bft) O-NO 1,00 h 0,203 mm 2,7 UV-I 359 W/m 2,8 C 9,4 C 18,3 km/h (3 Bft)
30.09.2015 13:00 13,2 C 50 % 1033,2 hPa 0,0 l/m 8,4 km/h (2 Bft) O-NO 1,00 h 0,254 mm 3,3 UV-I 597 W/m 3,1 C 11,7 C 18,5 km/h (3 Bft)
30.09.2015 14:00 13,6 C 48 % 1032,7 hPa 0,0 l/m 9,0 km/h (2 Bft) O-NO 1,00 h 0,356 mm 2,8 UV-I 547 W/m 2,8 C 11,8 C 18,8 km/h (3 Bft)
30.09.2015 15:00 13,5 C 48 % 1032,2 hPa 0,0 l/m 5,2 km/h (1 Bft) O-NO 1,00 h 0,330 mm 1,9 UV-I 451 W/m 2,8 C 12,8 C 14,6 km/h (3 Bft)
30.09.2015 16:00 12,8 C 50 % 1032,1 hPa 0,0 l/m 7,1 km/h (2 Bft) O-NO 1,00 h 0,254 mm 1,0 UV-I 231 W/m 2,6 C 11,7 C 16,9 km/h (3 Bft)
30.09.2015 17:00 11,7 C 53 % 1032,3 hPa 0,0 l/m 7,2 km/h (2 Bft) O-NO 0,30 h 0,152 mm 0,5 UV-I 66 W/m 2,4 C 10,4 C 15,5 km/h (3 Bft)
30.09.2015 18:00 10,7 C 57 % 1032,2 hPa 0,0 l/m 2,6 km/h (1 Bft) O-NO 0,00 h 0,076 mm 0,0 UV-I 18 W/m 2,6 C 10,5 C 6,8 km/h (2 Bft)
30.09.2015 19:00 10,0 C 62 % 1032,1 hPa 0,0 l/m 0,9 km/h (0 Bft) N-NO 0,00 h 0,025 mm 0,0 UV-I 0 W/m 3,2 C 10,0 C 2,5 km/h (1 Bft)
30.09.2015 20:00 8,7 C 68 % 1032,0 hPa 0,0 l/m 2,9 km/h (1 Bft) N-NO 0,00 h 0,000 mm 0,0 UV-I 0 W/m 3,1 C 8,8 C 5,3 km/h (1 Bft)
30.09.2015 21:00 7,9 C 71 % 1032,1 hPa 0,0 l/m 3,3 km/h (1 Bft) N-NO 0,00 h 0,025 mm 0,0 UV-I 0 W/m 3,0 C 7,9 C 5,8 km/h (2 Bft)
30.09.2015 22:00 7,3 C 72 % 1032,1 hPa 0,0 l/m 3,0 km/h (1 Bft) NO 0,00 h 0,025 mm 0,0 UV-I 0 W/m 2,5 C 7,3 C 6,0 km/h (2 Bft)
30.09.2015 23:00 6,5 C 71 % 1032,2 hPa 0,0 l/m 3,6 km/h (1 Bft) N-NO 0,00 h 0,025 mm 0,0 UV-I 0 W/m 1,7 C 6,5 C 6,5 km/h (2 Bft)
01.10.2015 00:00 5,7 C 72 % 1032,0 hPa 0,0 l/m 3,0 km/h (1 Bft) N-NO 0,00 h 0,025 mm 0,0 UV-I 0 W/m 1,1 C 5,7 C 5,7 km/h (2 Bft)
01.10.2015 01:00 5,3 C 72 % 1031,6 hPa 0,0 l/m 2,5 km/h (1 Bft) NO 0,00 h 0,025 mm 0,0 UV-I 0 W/m 0,8 C 5,3 C 4,7 km/h (1 Bft)
01.10.2015 02:00 4,9 C 75 % 1031,3 hPa 0,0 l/m 4,9 km/h (1 Bft) N-NO 0,00 h 0,025 mm 0,0 UV-I 0 W/m 0,9 C 4,8 C 7,7 km/h (2 Bft)
01.10.2015 03:00 4,8 C 76 % 1030,9 hPa 0,0 l/m 5,0 km/h (1 Bft) NO 0,00 h 0,025 mm 0,0 UV-I 0 W/m 1,0 C 4,5 C 8,9 km/h (2 Bft)
01.10.2015 04:00 4,4 C 77 % 1030,7 hPa 0,0 l/m 2,8 km/h (1 Bft) NO 0,00 h 0,000 mm 0,0 UV-I 0 W/m 0,7 C 4,4 C 5,4 km/h (2 Bft)
01.10.2015 05:00 3,7 C 78 % 1030,5 hPa 0,0 l/m 2,8 km/h (1 Bft) N-NW 0,00 h 0,025 mm 0,0 UV-I 0 W/m 0,3 C 3,7 C 4,8 km/h (1 Bft)
01.10.2015 06:00 2,3 C 84 % 1030,4 hPa 0,0 l/m 4,5 km/h (1 Bft) NW 0,00 h 0,025 mm 0,0 UV-I 0 W/m -0,2 C 2,2 C 6,6 km/h (2 Bft)
01.10.2015 07:00 1,9 C 87 % 1030,3 hPa 0,0 l/m 5,4 km/h (1 Bft) N 0,00 h 0,000 mm 0,0 UV-I 15 W/m -0,1 C 1,6 C 8,2 km/h (2 Bft)
01.10.2015 08:00 3,5 C 85 % 1030,3 hPa 0,0 l/m 4,5 km/h (1 Bft) N 0,48 h 0,000 mm 0,5 UV-I 109 W/m 1,3 C 3,2 C 8,9 km/h (2 Bft)
01.10.2015 14:00 15,3 C 44 % 1029,6 hPa 0,0 l/m 6,1 km/h (2 Bft) O-NO 1,80 h 0,000 mm 2,7 UV-I 527 W/m 3,0 C 14,4 C 14,8 km/h (3 Bft)
01.10.2015 15:00 15,2 C 43 % 1029,5 hPa 0,0 l/m 4,8 km/h (1 Bft) O-NO 1,00 h 0,330 mm 1,9 UV-I 439 W/m 2,8 C 14,8 C 13,8 km/h (3 Bft)
01.10.2015 16:00 15,0 C 44 % 1029,1 hPa 0,0 l/m 4,8 km/h (1 Bft) O-NO 1,00 h 0,254 mm 1,1 UV-I 314 W/m 2,9 C 14,5 C 12,4 km/h (2 Bft)
01.10.2015 17:00 14,2 C 47 % 1028,8 hPa 0,0 l/m 3,3 km/h (1 Bft) O-NO 0,73 h 0,203 mm 0,5 UV-I 81 W/m 3,0 C 13,9 C 9,8 km/h (2 Bft)
01.10.2015 18:00 12,8 C 53 % 1028,6 hPa 0,0 l/m 2,5 km/h (1 Bft) O-NO 0,00 h 0,076 mm 0,0 UV-I 19 W/m 3,3 C 12,7 C 6,5 km/h (2 Bft)
01.10.2015 19:00 11,0 C 60 % 1028,8 hPa 0,0 l/m 2,6 km/h (1 Bft) N-NO 0,00 h 0,025 mm 0,0 UV-I 0 W/m 3,5 C 11,0 C 6,4 km/h (2 Bft)
01.10.2015 20:00 9,8 C 63 % 1029,0 hPa 0,0 l/m 1,3 km/h (1 Bft) N 0,00 h 0,025 mm 0,0 UV-I 0 W/m 3,1 C 9,8 C 3,5 km/h (1 Bft)
01.10.2015 21:00 8,9 C 66 % 1029,1 hPa 0,0 l/m 4,3 km/h (1 Bft) NO 0,00 h 0,025 mm 0,0 UV-I 0 W/m 3,0 C 8,8 C 8,5 km/h (2 Bft)
01.10.2015 22:00 8,7 C 67 % 1028,9 hPa 0,0 l/m 6,7 km/h (2 Bft) N-NO 0,00 h 0,025 mm 0,0 UV-I 0 W/m 3,0 C 7,9 C 11,4 km/h (2 Bft)
01.10.2015 23:00 8,2 C 69 % 1028,9 hPa 0,0 l/m 6,2 km/h (2 Bft) N-NO 0,00 h 0,025 mm 0,0 UV-I 0 W/m 2,9 C 7,6 C 10,6 km/h (2 Bft)
02.10.2015 00:00 7,6 C 72 % 1028,6 hPa 0,0 l/m 4,6 km/h (1 Bft) N-NO 0,00 h 0,025 mm 0,0 UV-I 0 W/m 2,8 C 7,5 C 8,4 km/h (2 Bft)
02.10.2015 01:00 7,2 C 73 % 1028,2 hPa 0,0 l/m 3,2 km/h (1 Bft) N-NO 0,00 h 0,025 mm 0,0 UV-I 0 W/m 2,8 C 7,0 C 6,3 km/h (2 Bft)
02.10.2015 02:00 7,1 C 75 % 1027,8 hPa 0,0 l/m 1,3 km/h (1 Bft) N 0,00 h 0,025 mm 0,0 UV-I 0 W/m 2,9 C 7,1 C 2,8 km/h (1 Bft)
02.10.2015 03:00 6,2 C 79 % 1027,4 hPa 0,0 l/m 1,6 km/h (1 Bft) N 0,00 h 0,025 mm 0,0 UV-I 0 W/m 2,7 C 6,2 C 3,3 km/h (1 Bft)
02.10.2015 04:00 6,0 C 81 % 1026,9 hPa 0,0 l/m 1,7 km/h (1 Bft) N 0,00 h 0,000 mm 0,0 UV-I 0 W/m 2,9 C 6,0 C 4,2 km/h (1 Bft)
02.10.2015 05:00 5,9 C 81 % 1026,7 hPa 0,0 l/m 1,5 km/h (1 Bft) N 0,00 h 0,025 mm 0,0 UV-I 0 W/m 2,9 C 5,9 C 3,3 km/h (1 Bft)
02.10.2015 06:00 4,9 C 84 % 1026,5 hPa 0,0 l/m 3,1 km/h (1 Bft) O-NO 0,00 h 0,025 mm 0,0 UV-I 0 W/m 2,4 C 4,6 C 6,8 km/h (2 Bft)
02.10.2015 07:00 6,4 C 81 % 1026,3 hPa 0,0 l/m 8,7 km/h (2 Bft) O-NO 0,00 h 0,000 mm 0,0 UV-I 12 W/m 3,4 C 4,4 C 15,7 km/h (3 Bft)
02.10.2015 08:00 7,8 C 77 % 1026,4 hPa 0,0 l/m 7,4 km/h (2 Bft) O-NO 0,60 h 0,025 mm 0,6 UV-I 126 W/m 3,9 C 6,2 C 14,1 km/h (3 Bft)
02.10.2015 09:00 11,1 C 68 % 1026,2 hPa 0,0 l/m 2,7 km/h (1 Bft) O-NO 1,00 h 0,076 mm 1,1 UV-I 344 W/m 5,3 C 11,0 C 7,5 km/h (2 Bft)
02.10.2015 10:00 13,2 C 61 % 1025,9 hPa 0,0 l/m 2,3 km/h (1 Bft) O-NO 1,00 h 0,178 mm 1,9 UV-I 471 W/m 5,8 C 13,1 C 7,2 km/h (2 Bft)
02.10.2015 11:00 15,4 C 54 % 1025,2 hPa 0,0 l/m 5,2 km/h (1 Bft) O-NO 1,00 h 0,254 mm 2,7 UV-I 557 W/m 6,3 C 14,9 C 12,6 km/h (2 Bft)
02.10.2015 12:00 17,2 C 48 % 1024,5 hPa 0,0 l/m 8,9 km/h (2 Bft) O-NO 1,00 h 0,330 mm 3,2 UV-I 598 W/m 6,0 C 15,9 C 18,7 km/h (3 Bft)
02.10.2015 13:00 18,5 C 43 % 1023,7 hPa 0,0 l/m 7,6 km/h (2 Bft) O-NO 1,00 h 0,381 mm 3,2 UV-I 593 W/m 5,7 C 17,5 C 16,7 km/h (3 Bft)
02.10.2015 14:00 19,2 C 42 % 1022,9 hPa 0,0 l/m 5,3 km/h (1 Bft) O-NO 1,00 h 0,381 mm 2,6 UV-I 538 W/m 5,9 C 18,6 C 13,2 km/h (3 Bft)
02.10.2015 15:00 18,5 C 45 % 1022,4 hPa 0,0 l/m 5,9 km/h (2 Bft) O-NO 1,00 h 0,356 mm 1,8 UV-I 436 W/m 6,4 C 17,9 C 14,6 km/h (3 Bft)
02.10.2015 16:00 18,1 C 46 % 1021,9 hPa 0,0 l/m 4,0 km/h (1 Bft) O-NO 1,00 h 0,279 mm 1,0 UV-I 302 W/m 6,4 C 17,9 C 10,9 km/h (2 Bft)
02.10.2015 17:00 17,2 C 49 % 1021,3 hPa 0,0 l/m 3,2 km/h (1 Bft) O-NO 0,57 h 0,203 mm 0,5 UV-I 82 W/m 6,3 C 17,0 C 10,2 km/h (2 Bft)
02.10.2015 18:00 15,9 C 54 % 1020,8 hPa 0,0 l/m 0,9 km/h (0 Bft) N 0,00 h 0,076 mm 0,0 UV-I 16 W/m 6,6 C 15,8 C 2,9 km/h (1 Bft)
02.10.2015 19:00 14,3 C 59 % 1020,6 hPa 0,0 l/m 0,8 km/h (0 Bft) N 0,00 h 0,025 mm 0,0 UV-I 0 W/m 6,4 C 14,3 C 3,1 km/h (1 Bft)
02.10.2015 20:00 13,7 C 61 % 1020,5 hPa 0,0 l/m 1,8 km/h (1 Bft) O-NO 0,00 h 0,025 mm 0,0 UV-I 0 W/m 6,3 C 13,7 C 6,0 km/h (2 Bft)
02.10.2015 21:00 13,3 C 63 % 1020,2 hPa 0,0 l/m 1,1 km/h (0 Bft) N 0,00 h 0,025 mm 0,0 UV-I 0 W/m 6,4 C 13,3 C 4,5 km/h (1 Bft)
02.10.2015 22:00 12,8 C 66 % 1019,8 hPa 0,0 l/m 1,3 km/h (1 Bft) N 0,00 h 0,025 mm 0,0 UV-I 0 W/m 6,6 C 12,7 C 4,8 km/h (1 Bft)
02.10.2015 23:00 12,0 C 69 % 1019,5 hPa 0,0 l/m 2,1 km/h (1 Bft) O 0,00 h 0,025 mm 0,0 UV-I 0 W/m 6,5 C 12,0 C 6,5 km/h (2 Bft)
03.10.2015 00:00 11,4 C 71 % 1019,2 hPa 0,0 l/m 3,3 km/h (1 Bft) O-NO 0,00 h 0,025 mm 0,0 UV-I 0 W/m 6,4 C 11,3 C 9,4 km/h (2 Bft)
03.10.2015 01:00 10,6 C 75 % 1018,8 hPa 0,0 l/m 5,2 km/h (1 Bft) O-NO 0,00 h 0,025 mm 0,0 UV-I 0 W/m 6,4 C 10,2 C 12,1 km/h (2 Bft)
03.10.2015 02:00 10,2 C 77 % 1018,5 hPa 0,0 l/m 2,8 km/h (1 Bft) O-NO 0,00 h 0,025 mm 0,0 UV-I 0 W/m 6,4 C 10,1 C 6,9 km/h (2 Bft)
03.10.2015 03:00 9,7 C 79 % 1017,8 hPa 0,0 l/m 3,8 km/h (1 Bft) O-NO 0,00 h 0,025 mm 0,0 UV-I 0 W/m 6,3 C 9,5 C 9,3 km/h (2 Bft)
03.10.2015 04:00 9,2 C 81 % 1017,4 hPa 0,0 l/m 4,7 km/h (1 Bft) O-NO 0,00 h 0,025 mm 0,0 UV-I 0 W/m 6,0 C 9,0 C 11,0 km/h (2 Bft)
03.10.2015 05:00 8,8 C 82 % 1017,1 hPa 0,0 l/m 0,6 km/h (0 Bft) N 0,00 h 0,025 mm 0,0 UV-I 0 W/m 5,9 C 8,8 C 2,0 km/h (1 Bft)
03.10.2015 06:00 8,2 C 84 % 1016,7 hPa 0,0 l/m 0,9 km/h (0 Bft) N 0,00 h 0,025 mm 0,0 UV-I 0 W/m 5,6 C 8,2 C 3,9 km/h (1 Bft)
03.10.2015 07:00 7,9 C 86 % 1016,6 hPa 0,0 l/m 0,8 km/h (0 Bft) N 0,00 h 0,000 mm 0,0 UV-I 14 W/m 5,6 C 7,9 C 2,6 km/h (1 Bft)
03.10.2015 08:00 8,5 C 86 % 1016,8 hPa 0,0 l/m 0,1 km/h (0 Bft) N 0,58 h 0,000 mm 0,5 UV-I 113 W/m 6,4 C 8,5 C 0,4 km/h (0 Bft)
03.10.2015 09:00 12,0 C 76 % 1016,8 hPa 0,0 l/m 0,9 km/h (0 Bft) O-NO 1,00 h 0,051 mm 1,0 UV-I 288 W/m 7,9 C 12,0 C 3,2 km/h (1 Bft)
03.10.2015 10:00 13,8 C 70 % 1016,7 hPa 0,0 l/m 1,2 km/h (1 Bft) N 1,00 h 0,152 mm 1,8 UV-I 430 W/m 8,4 C 13,8 C 3,7 km/h (1 Bft)
03.10.2015 11:00 16,0 C 64 % 1016,5 hPa 0,0 l/m 0,3 km/h (0 Bft) N 1,00 h 0,229 mm 2,5 UV-I 501 W/m 9,1 C 16,0 C 1,3 km/h (1 Bft)
03.10.2015 12:00 18,3 C 58 % 1015,8 hPa 0,0 l/m 0,3 km/h (0 Bft) N 1,00 h 0,279 mm 2,8 UV-I 499 W/m 9,9 C 18,3 C 0,9 km/h (0 Bft)
03.10.2015 13:00 20,0 C 53 % 1015,2 hPa 0,0 l/m 0,2 km/h (0 Bft) N 1,00 h 0,279 mm 2,8 UV-I 518 W/m 10,2 C 20,0 C 1,0 km/h (0 Bft)
03.10.2015 14:00 20,4 C 52 % 1014,7 hPa 0,0 l/m 2,7 km/h (1 Bft) S 1,00 h 0,305 mm 2,4 UV-I 461 W/m 10,1 C 20,3 C 6,0 km/h (2 Bft)
03.10.2015 15:00 19,5 C 54 % 1014,7 hPa 0,0 l/m 3,9 km/h (1 Bft) S 1,00 h 0,305 mm 1,2 UV-I 196 W/m 10,1 C 19,5 C 7,8 km/h (2 Bft)
03.10.2015 16:00 18,5 C 57 % 1014,7 hPa 0,0 l/m 1,1 km/h (1 Bft) N 1,00 h 0,152 mm 0,5 UV-I 102 W/m 9,8 C 18,5 C 2,9 km/h (1 Bft)
03.10.2015 17:00 18,2 C 60 % 1014,7 hPa 0,0 l/m 0,1 km/h (0 Bft) N 0,73 h 0,076 mm 0,0 UV-I 71 W/m 10,2 C 18,2 C 0,2 km/h (0 Bft)
03.10.2015 18:00 17,6 C 64 % 1014,5 hPa 0,0 l/m 0,6 km/h (0 Bft) N 0,00 h 0,051 mm 0,0 UV-I 18 W/m 10,7 C 17,6 C 1,1 km/h (1 Bft)
03.10.2015 19:00 16,3 C 70 % 1014,5 hPa 0,0 l/m 0,2 km/h (0 Bft) N 0,00 h 0,025 mm 0,0 UV-I 0 W/m 10,9 C 16,3 C 1,0 km/h (0 Bft)
03.10.2015 20:00 14,5 C 75 % 1014,8 hPa 0,0 l/m 0,0 km/h (0 Bft) N 0,00 h 0,025 mm 0,0 UV-I 0 W/m 10,1 C 14,5 C 0,2 km/h (0 Bft)
03.10.2015 21:00 12,9 C 80 % 1014,9 hPa 0,0 l/m 0,0 km/h (0 Bft) N 0,00 h 0,025 mm 0,0 UV-I 0 W/m 9,5 C 12,9 C 0,0 km/h (0 Bft)
03.10.2015 22:00 11,2 C 84 % 1014,8 hPa 0,0 l/m 0,0 km/h (0 Bft) N 0,00 h 0,025 mm 0,0 UV-I 0 W/m 8,6 C 11,2 C 0,0 km/h (0 Bft)
03.10.2015 23:00 9,9 C 86 % 1014,8 hPa 0,0 l/m 0,0 km/h (0 Bft) N 0,00 h 0,000 mm 0,0 UV-I 0 W/m 7,7 C 9,9 C 0,0 km/h (0 Bft)
04.10.2015 00:00 8,8 C 88 % 1014,9 hPa 0,0 l/m 0,0 km/h (0 Bft) N 0,00 h 0,000 mm 0,0 UV-I 0 W/m 6,8 C 8,8 C 0,0 km/h (0 Bft)
04.10.2015 01:00 7,7 C 89 % 1015,2 hPa 0,0 l/m 0,0 km/h (0 Bft) N 0,00 h 0,000 mm 0,0 UV-I 0 W/m 6,1 C 7,7 C 0,0 km/h (0 Bft)
04.10.2015 02:00 7,0 C 90 % 1015,3 hPa 0,0 l/m 0,0 km/h (0 Bft) N 0,00 h 0,000 mm 0,0 UV-I 0 W/m 5,5 C 7,0 C 0,0 km/h (0 Bft)
04.10.2015 03:00 6,3 C 90 % 1015,2 hPa 0,0 l/m 0,0 km/h (0 Bft) N 0,00 h 0,000 mm 0,0 UV-I 0 W/m 4,9 C 6,3 C 0,0 km/h (0 Bft)
04.10.2015 04:00 5,7 C 91 % 1015,0 hPa 0,0 l/m 0,0 km/h (0 Bft) N 0,00 h 0,000 mm 0,0 UV-I 0 W/m 4,4 C 5,7 C 0,0 km/h (0 Bft)
04.10.2015 05:00 5,3 C 92 % 1015,0 hPa 0,0 l/m 0,0 km/h (0 Bft) N 0,00 h 0,000 mm 0,0 UV-I 0 W/m 4,0 C 5,3 C 0,2 km/h (0 Bft)
04.10.2015 06:00 4,9 C 93 % 1015,6 hPa 0,0 l/m 0,0 km/h (0 Bft) N 0,00 h 0,000 mm 0,0 UV-I 0 W/m 3,8 C 4,9 C 0,0 km/h (0 Bft)
04.10.2015 07:00 4,8 C 93 % 1015,9 hPa 0,0 l/m 0,0 km/h (0 Bft) N 0,00 h 0,000 mm 0,0 UV-I 20 W/m 3,8 C 4,8 C 0,0 km/h (0 Bft)
04.10.2015 08:00 5,7 C 95 % 1016,3 hPa 0,0 l/m 0,0 km/h (0 Bft) N 0,63 h 0,000 mm 0,5 UV-I 52 W/m 4,9 C 5,7 C 0,0 km/h (0 Bft)
04.10.2015 09:00 8,3 C 92 % 1016,8 hPa 0,0 l/m 0,0 km/h (0 Bft) N 1,00 h 0,025 mm 0,8 UV-I 155 W/m 7,1 C 8,3 C 0,0 km/h (0 Bft)
04.10.2015 10:00 10,9 C 87 % 1017,1 hPa 0,0 l/m 0,0 km/h (0 Bft) N 1,00 h 0,076 mm 1,2 UV-I 197 W/m 8,8 C 10,9 C 0,1 km/h (0 Bft)
04.10.2015 11:00 12,7 C 84 % 1017,0 hPa 0,0 l/m 0,0 km/h (0 Bft) N 1,00 h 0,102 mm 1,1 UV-I 146 W/m 10,0 C 12,7 C 0,1 km/h (0 Bft)
04.10.2015 12:00 13,1 C 86 % 1017,2 hPa 0,0 l/m 0,6 km/h (0 Bft) N 1,00 h 0,076 mm 0,7 UV-I 95 W/m 10,7 C 13,1 C 1,4 km/h (1 Bft)
04.10.2015 13:00 13,2 C 91 % 1017,3 hPa 0,2 l/m 0,1 km/h (0 Bft) N 1,00 h 0,051 mm 0,7 UV-I 100 W/m 11,7 C 13,2 C 0,5 km/h (0 Bft)
04.10.2015 14:00 13,1 C 92 % 1017,2 hPa 0,4 l/m 0,1 km/h (0 Bft) N 1,00 h 0,051 mm 0,7 UV-I 96 W/m 11,9 C 13,1 C 0,2 km/h (0 Bft)
04.10.2015 15:00 13,2 C 93 % 1017,1 hPa 0,0 l/m 0,6 km/h (0 Bft) N 0,90 h 0,051 mm 0,7 UV-I 91 W/m 12,2 C 13,2 C 1,4 km/h (1 Bft)
04.10.2015 16:00 13,1 C 93 % 1017,2 hPa 0,0 l/m 1,5 km/h (1 Bft) S 0,67 h 0,051 mm 0,5 UV-I 61 W/m 12,1 C 13,1 C 3,4 km/h (1 Bft)
04.10.2015 17:00 12,9 C 94 % 1017,2 hPa 0,0 l/m 1,8 km/h (1 Bft) S 0,00 h 0,025 mm 0,0 UV-I 30 W/m 11,9 C 12,9 C 4,6 km/h (1 Bft)
04.10.2015 18:00 12,4 C 93 % 1017,1 hPa 0,0 l/m 0,0 km/h (0 Bft) N 0,00 h 0,025 mm 0,0 UV-I 13 W/m 11,3 C 12,4 C 0,1 km/h (0 Bft)
04.10.2015 19:00 12,0 C 93 % 1017,7 hPa 0,0 l/m 0,0 km/h (0 Bft) N 0,00 h 0,000 mm 0,0 UV-I 0 W/m 11,0 C 12,0 C 0,5 km/h (0 Bft)
04.10.2015 20:00 11,6 C 94 % 1018,1 hPa 0,0 l/m 0,2 km/h (0 Bft) N 0,00 h 0,000 mm 0,0 UV-I 0 W/m 10,7 C 11,6 C 1,1 km/h (1 Bft)
04.10.2015 21:00 11,5 C 94 % 1018,0 hPa 0,0 l/m 0,0 km/h (0 Bft) N 0,00 h 0,000 mm 0,0 UV-I 0 W/m 10,6 C 11,5 C 0,2 km/h (0 Bft)
04.10.2015 22:00 11,3 C 93 % 1018,0 hPa 0,0 l/m 0,0 km/h (0 Bft) N 0,00 h 0,000 mm 0,0 UV-I 0 W/m 10,2 C 11,3 C 0,0 km/h (0 Bft)
04.10.2015 23:00 10,4 C 93 % 1017,8 hPa 0,2 l/m 0,0 km/h (0 Bft) N 0,00 h 0,000 mm 0,0 UV-I 0 W/m 9,2 C 10,4 C 0,0 km/h (0 Bft)
Min-Datum _ 01.10.15 02.10.15 03.10.15 - 28.09.15 - - - - - 01.10.15 01.10.15 28.09.15
_ Min-Zeit 07:09 14:22 18:41 - 00:00 - - - - - 07:09 07:58 00:00
Minimum _ 1,7 C 39 % 1014,4 hPa - 0,0 km/h (0 Bft) - - - - - -0,4 C -0,8 C 0,0 km/h (0 Bft)
Max-Datum _ 03.10.15 29.09.15 28.09.15 04.10.15 30.09.15 - 01.10.15 28.09.15 29.09.15 28.09.15 04.10.15 03.10.15 30.09.15
_ Max-Zeit 14:46 08:25 21:28 14:04 13:19 - 14:11 13:00 12:50 12:57 15:37 14:47 13:19
Maximum _ 21,3 C 96 % 1035,0 hPa 0,4 l/m 24,1 km/h
O-NO (4 Bft)
- 1,00 h 0,406 mm 3,7 UV-I 810 W/m 12,5 C 21,2 C 33,8 km/h
O-NO (5 Bft)
Durchschnitt _ 10,3 C 73 % 1026,8 hPa #0,8 l/m 2,8 km/h (1 Bft) N #59:00 h #12,956 mm 1,5 UV-I 250 W/m 5,2 C 10,1 C 6,2 km/h (2 Bft)